createdAt,value
2023-01-21T00:01:19.273Z,2.00
2023-01-21T00:03:47.404Z,1.70
2023-01-21T00:06:15.522Z,1.60
2023-01-21T00:08:44.054Z,1.60
2023-01-21T00:11:15.324Z,1.60
2023-01-21T00:13:44.726Z,1.60
2023-01-21T00:16:13.508Z,1.50
2023-01-21T00:18:41.950Z,1.60
2023-01-21T00:21:10.866Z,1.50
2023-01-21T00:23:38.963Z,1.60
2023-01-21T00:26:10.249Z,1.60
2023-01-21T00:28:40.172Z,1.50
2023-01-21T00:31:09.285Z,2.10
2023-01-21T00:33:38.258Z,1.70
2023-01-21T00:36:11.955Z,1.90
2023-01-21T00:38:40.669Z,3.30
2023-01-21T00:41:13.888Z,2.20
2023-01-21T00:43:43.422Z,2.20
2023-01-21T00:46:12.036Z,2.10
2023-01-21T00:48:40.624Z,2.30
2023-01-21T00:51:09.955Z,2.20
2023-01-21T00:53:42.141Z,2.60
2023-01-21T00:56:13.083Z,2.30
2023-01-21T00:58:43.540Z,2.10
2023-01-21T01:01:14.129Z,2.40
2023-01-21T01:03:42.592Z,2.20
2023-01-21T01:06:15.984Z,2.20
2023-01-21T01:08:45.678Z,1.90
2023-01-21T01:11:14.554Z,2.10
2023-01-21T01:13:43.835Z,2.00
2023-01-21T01:16:16.220Z,2.40
2023-01-21T01:18:44.330Z,1.80
2023-01-21T01:21:15.066Z,2.00
2023-01-21T01:23:44.342Z,2.10
2023-01-21T01:26:14.943Z,2.10
2023-01-21T01:28:43.459Z,2.20
2023-01-21T01:31:14.800Z,1.80
2023-01-21T01:33:43.409Z,1.90
2023-01-21T01:36:17.538Z,2.90
2023-01-21T01:38:46.167Z,4.60
2023-01-21T01:41:22.986Z,4.90
2023-01-21T01:43:55.467Z,4.80
2023-01-21T01:46:25.613Z,5.50
2023-01-21T01:49:16.900Z,6.20
2023-01-21T01:51:48.018Z,6.70
2023-01-21T01:54:21.063Z,7.00
2023-01-21T01:56:54.007Z,6.80
2023-01-21T01:59:22.396Z,6.20
2023-01-21T02:01:50.416Z,6.60
2023-01-21T02:04:23.281Z,6.50
2023-01-21T02:06:54.464Z,4.80
2023-01-21T02:09:23.491Z,4.40
2023-01-21T02:11:51.654Z,4.10
2023-01-21T02:14:19.694Z,4.10
2023-01-21T02:16:58.068Z,3.80
2023-01-21T02:19:41.698Z,3.90
2023-01-21T02:22:17.749Z,3.70
2023-01-21T02:25:04.370Z,4.00
2023-01-21T02:27:51.303Z,3.90
2023-01-21T02:30:28.543Z,3.40
2023-01-21T02:33:20.336Z,3.70
2023-01-21T02:36:15.657Z,3.70
2023-01-21T02:39:04.302Z,3.80
2023-01-21T02:42:14.164Z,3.90
2023-01-21T02:44:51.196Z,3.30
2023-01-21T02:47:34.557Z,3.30
2023-01-21T02:50:13.045Z,3.40
2023-01-21T02:52:43.595Z,2.80
2023-01-21T02:55:16.971Z,3.00
2023-01-21T02:57:53.645Z,2.60
2023-01-21T03:00:34.040Z,3.00
2023-01-21T03:03:25.491Z,3.20
2023-01-21T03:06:18.591Z,2.90
2023-01-21T03:08:57.785Z,2.90
2023-01-21T03:11:26.131Z,2.70
2023-01-21T03:14:19.917Z,2.50
2023-01-21T03:16:58.127Z,2.70
2023-01-21T03:19:43.297Z,2.30
2023-01-21T03:22:19.697Z,2.40
2023-01-21T03:24:51.827Z,2.20
2023-01-21T03:27:23.925Z,2.20
2023-01-21T03:29:59.554Z,2.00
2023-01-21T03:32:31.519Z,2.10
2023-01-21T03:35:01.783Z,2.00
2023-01-21T03:38:08.186Z,2.20
2023-01-21T03:43:10.563Z,1.90
2023-01-21T03:45:57.057Z,2.30
2023-01-21T03:48:48.403Z,2.50
2023-01-21T03:51:29.990Z,2.30
2023-01-21T03:53:59.804Z,2.20
2023-01-21T03:56:28.980Z,2.20
2023-01-21T03:58:57.096Z,2.10
2023-01-21T04:01:25.165Z,2.30
2023-01-21T04:03:53.223Z,2.60
2023-01-21T04:06:23.326Z,2.70
2023-01-21T04:08:51.417Z,2.90
2023-01-21T04:11:19.537Z,2.40
2023-01-21T04:13:47.551Z,2.40
2023-01-21T04:16:15.546Z,2.40
2023-01-21T04:18:43.647Z,2.80
2023-01-21T04:21:12.101Z,2.60
2023-01-21T04:23:41.320Z,2.40
2023-01-21T04:26:09.508Z,2.50
2023-01-21T04:28:37.625Z,2.40
2023-01-21T04:31:05.733Z,2.80
2023-01-21T04:33:33.936Z,2.70
2023-01-21T04:36:02.071Z,2.90
2023-01-21T04:38:30.193Z,2.70
2023-01-21T04:40:58.102Z,2.60
2023-01-21T04:43:26.123Z,2.90
2023-01-21T04:45:54.203Z,2.50
2023-01-21T04:48:23.287Z,2.60
2023-01-21T04:50:51.327Z,3.00
2023-01-21T04:53:19.278Z,2.80
2023-01-21T04:55:47.411Z,2.70
2023-01-21T04:58:15.525Z,3.10
2023-01-21T05:00:43.579Z,3.60
2023-01-21T05:03:12.115Z,3.60
2023-01-21T05:05:40.174Z,4.60
2023-01-21T05:08:08.175Z,3.90
2023-01-21T05:10:36.367Z,3.00
2023-01-21T05:13:04.658Z,3.10
2023-01-21T05:15:33.101Z,3.40
2023-01-21T05:18:01.552Z,2.90
2023-01-21T05:20:29.528Z,3.00
2023-01-21T05:22:58.125Z,3.30
2023-01-21T05:25:26.180Z,2.90
2023-01-21T05:27:55.168Z,2.80
2023-01-21T05:30:23.171Z,3.20
2023-01-21T05:32:54.879Z,3.30
2023-01-21T05:35:25.574Z,3.40
2023-01-21T05:37:53.654Z,3.10
2023-01-21T05:40:21.742Z,2.80
2023-01-21T05:42:49.789Z,2.80
2023-01-21T05:45:18.127Z,3.20
2023-01-21T05:47:46.085Z,3.00
2023-01-21T05:50:14.315Z,2.90
2023-01-21T05:52:42.716Z,2.70
2023-01-21T05:55:10.835Z,2.50
2023-01-21T05:57:38.812Z,2.70
2023-01-21T06:00:07.684Z,2.60
2023-01-21T06:02:35.720Z,2.90
2023-01-21T06:05:04.124Z,3.70
2023-01-21T06:07:32.341Z,3.10
2023-01-21T06:10:00.402Z,3.10
2023-01-21T06:12:29.813Z,2.70
2023-01-21T06:14:57.867Z,3.00
2023-01-21T06:17:26.353Z,3.30
2023-01-21T06:19:54.634Z,3.00
2023-01-21T06:22:22.818Z,2.90
2023-01-21T06:24:50.745Z,3.40
2023-01-21T06:27:18.801Z,3.10
2023-01-21T06:29:46.820Z,3.40
2023-01-21T06:32:14.829Z,3.30
2023-01-21T06:34:45.179Z,3.40
2023-01-21T06:37:15.662Z,3.50
2023-01-21T06:39:43.554Z,7.00
2023-01-21T06:42:11.777Z,3.20
2023-01-21T06:44:40.284Z,3.20
2023-01-21T06:47:08.379Z,3.30
2023-01-21T06:49:36.385Z,3.10
2023-01-21T06:52:04.716Z,3.20
2023-01-21T06:54:32.924Z,3.80
2023-01-21T06:57:01.957Z,3.50
2023-01-21T06:59:31.565Z,3.40
2023-01-21T07:01:59.814Z,4.40
2023-01-21T07:04:28.438Z,3.80
2023-01-21T07:06:56.398Z,3.40
2023-01-21T07:09:27.522Z,3.50
2023-01-21T07:11:55.727Z,3.80
2023-01-21T07:14:23.779Z,4.30
2023-01-21T07:16:51.704Z,4.20
2023-01-21T07:19:20.259Z,4.50
2023-01-21T07:21:48.426Z,5.40
2023-01-21T07:24:16.383Z,5.90
2023-01-21T07:26:44.550Z,5.00
2023-01-21T07:29:12.602Z,5.60
2023-01-21T07:31:40.862Z,5.20
2023-01-21T07:34:10.028Z,6.20
2023-01-21T07:36:37.984Z,5.60
2023-01-21T07:39:06.136Z,6.20
2023-01-21T07:41:34.421Z,5.90
2023-01-21T07:44:04.600Z,5.50
2023-01-21T07:46:33.337Z,5.30
2023-01-21T07:49:01.799Z,5.00
2023-01-21T07:51:29.922Z,5.30
2023-01-21T07:53:58.642Z,6.60
2023-01-21T07:56:27.335Z,5.80
2023-01-21T07:58:56.289Z,6.50
2023-01-21T08:01:28.668Z,5.00
2023-01-21T08:04:01.317Z,7.90
2023-01-21T08:06:29.257Z,5.50
2023-01-21T08:08:57.291Z,5.10
2023-01-21T08:11:25.303Z,4.50
2023-01-21T08:13:53.343Z,5.10
2023-01-21T08:16:21.919Z,4.30
2023-01-21T08:18:51.206Z,4.30
2023-01-21T08:21:21.032Z,4.70
2023-01-21T08:23:49.316Z,4.90
2023-01-21T08:26:17.401Z,5.00
2023-01-21T08:28:45.387Z,5.30
2023-01-21T08:31:14.348Z,5.10
2023-01-21T08:33:42.673Z,5.00
2023-01-21T08:36:10.899Z,4.60
2023-01-21T08:38:40.214Z,4.50
2023-01-21T08:41:08.414Z,4.70
2023-01-21T08:43:37.011Z,4.60
2023-01-21T08:46:05.697Z,4.70
2023-01-21T08:48:34.351Z,5.30
2023-01-21T08:51:02.432Z,4.80
2023-01-21T08:53:31.044Z,5.00
2023-01-21T08:56:01.171Z,6.10
2023-01-21T08:58:30.325Z,5.00
2023-01-21T09:00:59.818Z,4.50
2023-01-21T09:03:29.986Z,5.50
2023-01-21T09:06:02.280Z,5.60
2023-01-21T09:08:30.796Z,5.30
2023-01-21T09:11:01.901Z,6.40
2023-01-21T09:13:34.254Z,5.40
2023-01-21T09:16:07.258Z,5.40
2023-01-21T09:18:36.553Z,5.40
2023-01-21T09:21:06.437Z,4.70
2023-01-21T09:23:36.022Z,4.50
2023-01-21T09:26:05.537Z,5.10
2023-01-21T09:28:39.130Z,4.80
2023-01-21T09:31:10.499Z,4.50
2023-01-21T09:33:41.444Z,4.90
2023-01-21T09:36:14.419Z,4.60
2023-01-21T09:38:47.267Z,4.20
2023-01-21T09:41:40.416Z,4.90
2023-01-21T09:44:33.494Z,4.60
2023-01-21T09:47:33.932Z,4.70
2023-01-21T09:50:18.982Z,6.10
2023-01-21T09:52:51.460Z,5.60
2023-01-21T09:55:31.913Z,5.80
2023-01-21T09:58:03.782Z,7.80
2023-01-21T10:00:44.734Z,6.60
2023-01-21T10:03:50.322Z,8.00
2023-01-21T10:06:40.492Z,7.40
2023-01-21T10:09:26.765Z,6.80
2023-01-21T10:12:07.260Z,6.20
2023-01-21T10:14:59.266Z,6.50
2023-01-21T10:17:27.475Z,8.10
2023-01-21T10:20:06.090Z,6.10
2023-01-21T10:22:35.479Z,7.70
2023-01-21T10:25:18.551Z,6.00
2023-01-21T10:27:47.288Z,7.10
2023-01-21T10:30:22.974Z,7.20
2023-01-21T10:32:53.131Z,9.20
2023-01-21T10:35:36.688Z,7.50
2023-01-21T10:38:27.073Z,6.50
2023-01-21T10:41:11.354Z,7.50
2023-01-21T10:44:25.860Z,8.50
2023-01-21T10:47:14.620Z,7.30
2023-01-21T10:49:59.622Z,5.80
2023-01-21T10:52:45.345Z,6.50
2023-01-21T10:55:38.454Z,6.60
2023-01-21T10:58:41.421Z,8.80
2023-01-21T11:01:35.587Z,6.90
2023-01-21T11:04:23.394Z,6.80
2023-01-21T11:07:00.472Z,6.00
2023-01-21T11:09:35.066Z,6.70
2023-01-21T11:12:03.508Z,7.10
2023-01-21T11:14:33.779Z,6.20
2023-01-21T11:17:03.048Z,6.80
2023-01-21T11:19:31.609Z,6.40
2023-01-21T11:22:18.268Z,5.10
2023-01-21T11:24:51.987Z,5.00
2023-01-21T11:27:21.008Z,4.90
2023-01-21T11:29:50.432Z,6.00
2023-01-21T11:32:28.922Z,7.50
2023-01-21T11:35:13.493Z,6.00
2023-01-21T11:37:46.590Z,8.60
2023-01-21T11:40:24.163Z,8.50
2023-01-21T11:42:57.265Z,6.40
2023-01-21T11:45:37.031Z,6.50
2023-01-21T11:48:21.320Z,6.00
2023-01-21T11:50:49.595Z,5.20
2023-01-21T11:53:19.867Z,5.00
2023-01-21T11:55:54.358Z,4.90
2023-01-21T11:58:35.835Z,5.40
2023-01-21T12:01:08.955Z,6.00
2023-01-21T12:03:48.598Z,5.80
2023-01-21T12:06:27.696Z,6.10
2023-01-21T12:09:00.395Z,5.90
2023-01-21T12:11:31.066Z,5.70
2023-01-21T12:14:33.810Z,6.60
2023-01-21T12:17:29.785Z,5.30
2023-01-21T12:23:01.297Z,4.80
2023-01-21T12:26:03.191Z,5.20
2023-01-21T12:31:42.844Z,6.10
2023-01-21T12:34:37.177Z,6.70
2023-01-21T12:37:20.794Z,5.70
2023-01-21T12:39:52.044Z,5.70
2023-01-21T12:42:32.855Z,5.90
2023-01-21T12:45:05.837Z,8.40
2023-01-21T12:48:04.707Z,5.80
2023-01-21T12:50:54.539Z,5.20
2023-01-21T12:53:39.195Z,5.70
2023-01-21T12:56:13.508Z,7.20
2023-01-21T12:58:59.244Z,7.10
2023-01-21T13:04:47.165Z,6.50
2023-01-21T13:07:22.064Z,6.80
2023-01-21T13:09:58.607Z,6.10
2023-01-21T13:12:32.842Z,8.00
2023-01-21T13:15:21.661Z,5.60
2023-01-21T13:17:55.341Z,5.30
2023-01-21T13:20:24.993Z,6.30
2023-01-21T13:23:05.023Z,7.20
2023-01-21T13:25:51.185Z,6.50
2023-01-21T13:28:45.325Z,5.70
2023-01-21T13:31:19.273Z,6.40
2023-01-21T13:34:02.176Z,6.30
2023-01-21T13:36:47.445Z,6.00
2023-01-21T13:40:09.801Z,5.90
2023-01-21T13:42:58.011Z,5.40
2023-01-21T13:45:43.887Z,5.70
2023-01-21T13:48:35.547Z,6.80
2023-01-21T13:51:18.145Z,6.20
2023-01-21T13:54:24.412Z,6.20
2023-01-21T13:57:04.340Z,6.80
2023-01-21T13:59:40.088Z,9.50
2023-01-21T14:02:24.657Z,7.70
2023-01-21T14:05:11.196Z,8.30
2023-01-21T14:07:42.242Z,8.20
2023-01-21T14:10:19.989Z,7.60
2023-01-21T14:13:06.529Z,6.70
2023-01-21T14:16:15.609Z,7.70
2023-01-21T14:18:59.051Z,7.40
2023-01-21T14:21:42.868Z,7.10
2023-01-21T14:24:52.713Z,6.90
2023-01-21T14:27:20.743Z,7.30
2023-01-21T14:30:04.914Z,6.90
2023-01-21T14:32:42.440Z,7.30
2023-01-21T14:35:29.948Z,6.60
2023-01-21T14:38:36.930Z,6.90
2023-01-21T14:41:10.829Z,7.30
2023-01-21T14:43:40.565Z,7.30
2023-01-21T14:47:05.230Z,7.00
2023-01-21T14:49:47.684Z,15.10
2023-01-21T14:52:19.191Z,7.30
2023-01-21T14:54:48.842Z,7.00
2023-01-21T14:57:41.602Z,8.10
2023-01-21T15:00:39.122Z,6.90
2023-01-21T15:03:19.452Z,9.10
2023-01-21T15:05:52.579Z,7.90
2023-01-21T15:08:25.529Z,8.00
2023-01-21T15:11:05.475Z,10.00
2023-01-21T15:13:33.549Z,9.10
2023-01-21T15:16:27.252Z,8.80
2023-01-21T15:19:07.987Z,8.70
2023-01-21T15:22:01.334Z,9.00
2023-01-21T15:24:35.858Z,8.80
2023-01-21T15:27:20.467Z,7.90
2023-01-21T15:29:58.543Z,9.40
2023-01-21T15:32:36.848Z,8.30
2023-01-21T15:35:33.636Z,8.80
2023-01-21T15:38:10.392Z,8.80
2023-01-21T15:40:51.027Z,8.80
2023-01-21T15:43:40.263Z,9.60
2023-01-21T15:46:27.310Z,9.00
2023-01-21T15:49:40.687Z,8.50
2023-01-21T15:52:37.050Z,8.20
2023-01-21T15:55:39.181Z,8.40
2023-01-21T15:58:11.811Z,8.10
2023-01-21T16:00:50.560Z,8.30
2023-01-21T16:03:35.476Z,9.20
2023-01-21T16:06:33.093Z,9.00
2023-01-21T16:09:07.683Z,8.60
2023-01-21T16:11:44.644Z,8.50
2023-01-21T16:14:37.979Z,8.60
2023-01-21T16:17:18.244Z,8.30
2023-01-21T16:19:52.153Z,9.00
2023-01-21T16:22:29.845Z,8.70
2023-01-21T16:25:03.034Z,8.30
2023-01-21T16:27:32.454Z,9.20
2023-01-21T16:30:05.776Z,11.30
2023-01-21T16:32:34.958Z,11.60
2023-01-21T16:35:03.313Z,11.20
2023-01-21T16:37:32.921Z,13.10
2023-01-21T16:40:11.653Z,9.80
2023-01-21T16:42:44.220Z,11.40
2023-01-21T16:45:22.985Z,11.10
2023-01-21T16:47:57.311Z,10.70
2023-01-21T16:50:33.020Z,11.30
2023-01-21T16:53:08.208Z,11.50
2023-01-21T16:55:44.937Z,10.70
2023-01-21T16:58:46.795Z,11.10
2023-01-21T17:01:17.132Z,10.20
2023-01-21T17:03:47.766Z,10.00
2023-01-21T17:06:21.850Z,10.80
2023-01-21T17:08:56.803Z,11.20
2023-01-21T17:11:24.983Z,15.30
2023-01-21T17:13:54.060Z,16.80
2023-01-21T17:16:27.759Z,18.60
2023-01-21T17:19:03.852Z,20.40
2023-01-21T17:21:44.750Z,20.10
2023-01-21T17:24:34.363Z,21.20
2023-01-21T17:27:08.583Z,21.90
2023-01-21T17:29:38.994Z,20.00
2023-01-21T17:32:22.337Z,19.50
2023-01-21T17:35:12.497Z,22.20
2023-01-21T17:37:44.266Z,24.20
2023-01-21T17:40:34.339Z,22.40
2023-01-21T17:43:11.302Z,20.00
2023-01-21T17:45:45.024Z,19.80
2023-01-21T17:48:35.862Z,18.70
2023-01-21T17:51:16.408Z,18.10
2023-01-21T17:53:56.166Z,16.90
2023-01-21T17:56:37.672Z,16.50
2023-01-21T17:59:37.814Z,17.60
2023-01-21T18:02:22.193Z,16.50
2023-01-21T18:04:50.607Z,18.10
2023-01-21T18:07:32.692Z,17.30
2023-01-21T18:10:09.938Z,17.10
2023-01-21T18:12:38.249Z,16.80
2023-01-21T18:15:07.188Z,17.80
2023-01-21T18:17:37.754Z,18.80
2023-01-21T18:20:15.366Z,17.80
2023-01-21T18:22:43.970Z,17.40
2023-01-21T18:25:15.360Z,16.50
2023-01-21T18:27:47.040Z,16.20
2023-01-21T18:30:19.617Z,16.40
2023-01-21T18:32:49.788Z,16.20
2023-01-21T18:35:22.648Z,17.20
2023-01-21T18:37:50.737Z,17.50
2023-01-21T18:40:22.683Z,17.80
2023-01-21T18:42:55.491Z,17.90
2023-01-21T18:45:28.539Z,18.50
2023-01-21T18:47:58.848Z,18.70
2023-01-21T18:50:30.160Z,20.50
2023-01-21T18:52:58.672Z,25.30
2023-01-21T18:55:29.193Z,25.90
2023-01-21T18:57:57.340Z,28.50
2023-01-21T19:00:32.713Z,30.20
2023-01-21T19:03:01.748Z,30.90
2023-01-21T19:05:34.598Z,28.40
2023-01-21T19:08:03.035Z,27.50
2023-01-21T19:10:31.098Z,27.90
2023-01-21T19:12:59.157Z,28.80
2023-01-21T19:15:28.809Z,29.40
2023-01-21T19:17:57.716Z,28.70
2023-01-21T19:20:41.000Z,29.30
2023-01-21T19:23:17.439Z,28.60
2023-01-21T19:25:54.718Z,28.20
2023-01-21T19:28:23.902Z,29.20
2023-01-21T19:30:55.565Z,27.50
2023-01-21T19:33:24.629Z,23.40
2023-01-21T19:36:00.002Z,21.10
2023-01-21T19:38:28.393Z,21.70
2023-01-21T19:40:56.739Z,22.60
2023-01-21T19:43:25.151Z,22.10
2023-01-21T19:45:53.572Z,23.00
2023-01-21T19:48:24.969Z,22.30
2023-01-21T19:50:52.954Z,24.80
2023-01-21T19:53:22.375Z,27.10
2023-01-21T19:55:51.106Z,33.50
2023-01-21T19:58:25.375Z,33.50
2023-01-21T20:00:54.279Z,32.20
2023-01-21T20:03:24.558Z,34.20
2023-01-21T20:05:55.358Z,34.10
2023-01-21T20:08:26.797Z,32.90
2023-01-21T20:10:55.084Z,32.20
2023-01-21T20:13:23.623Z,33.40
2023-01-21T20:15:52.624Z,34.50
2023-01-21T20:18:26.272Z,30.00
2023-01-21T20:20:54.646Z,25.30
2023-01-21T20:23:23.883Z,24.90
2023-01-21T20:25:55.278Z,23.70
2023-01-21T20:28:26.675Z,22.00
2023-01-21T20:30:56.411Z,22.20
2023-01-21T20:33:26.521Z,21.00
2023-01-21T20:35:56.621Z,20.40
2023-01-21T20:38:35.978Z,20.10
2023-01-21T20:41:05.591Z,19.00
2023-01-21T20:43:34.347Z,19.60
2023-01-21T20:46:06.617Z,20.80
2023-01-21T20:48:41.530Z,22.20
2023-01-21T20:51:10.958Z,23.10
2023-01-21T20:53:39.460Z,21.50
2023-01-21T20:56:29.100Z,23.40
2023-01-21T20:58:58.321Z,23.70
2023-01-21T21:01:29.520Z,21.90
2023-01-21T21:03:57.678Z,22.20
2023-01-21T21:06:29.450Z,22.00
2023-01-21T21:08:58.419Z,21.10
2023-01-21T21:11:26.369Z,21.00
2023-01-21T21:13:54.637Z,21.30
2023-01-21T21:16:30.562Z,21.10
2023-01-21T21:19:00.751Z,20.20
2023-01-21T21:21:28.907Z,20.40
2023-01-21T21:23:56.926Z,20.80
2023-01-21T21:26:30.233Z,21.30
2023-01-21T21:28:58.333Z,20.40
2023-01-21T21:31:32.000Z,20.90
2023-01-21T21:34:00.524Z,20.40
2023-01-21T21:36:30.000Z,25.60
2023-01-21T21:39:00.217Z,28.30
2023-01-21T21:41:46.913Z,29.80
2023-01-21T21:44:15.017Z,31.40
2023-01-21T21:47:02.524Z,28.90
2023-01-21T21:49:30.606Z,30.40
2023-01-21T21:52:00.449Z,29.60
2023-01-21T21:54:31.271Z,31.20
2023-01-21T21:56:59.434Z,31.30
2023-01-21T21:59:27.369Z,32.20
2023-01-21T22:01:55.706Z,33.30
2023-01-21T22:04:24.913Z,31.70
2023-01-21T22:06:58.297Z,26.60
2023-01-21T22:09:26.289Z,28.30
2023-01-21T22:11:54.454Z,27.10
2023-01-21T22:14:22.517Z,26.30
2023-01-21T22:16:51.575Z,26.10
2023-01-21T22:19:19.772Z,21.50
2023-01-21T22:21:47.754Z,20.90
2023-01-21T22:24:15.854Z,19.20
2023-01-21T22:26:43.899Z,19.80
2023-01-21T22:29:12.790Z,20.70
2023-01-21T22:31:41.045Z,19.70
2023-01-21T22:34:11.265Z,19.70
2023-01-21T22:36:40.118Z,19.00
2023-01-21T22:39:08.742Z,20.30
2023-01-21T22:41:36.785Z,28.70
2023-01-21T22:44:05.227Z,29.80
2023-01-21T22:46:34.297Z,30.10
2023-01-21T22:49:02.345Z,30.90
2023-01-21T22:51:30.587Z,33.20
2023-01-21T22:54:01.394Z,32.20
2023-01-21T22:56:49.496Z,35.20
2023-01-21T22:59:17.494Z,31.30
2023-01-21T23:01:45.618Z,31.30
2023-01-21T23:04:14.871Z,31.00
2023-01-21T23:06:44.747Z,31.30
2023-01-21T23:09:15.472Z,29.80
2023-01-21T23:11:45.210Z,29.70
2023-01-21T23:14:13.403Z,30.10
2023-01-21T23:16:41.506Z,30.90
2023-01-21T23:19:09.591Z,32.80
2023-01-21T23:21:38.508Z,32.20
2023-01-21T23:24:07.463Z,31.30
2023-01-21T23:26:35.779Z,32.80
2023-01-21T23:29:04.800Z,30.70
2023-01-21T23:31:32.854Z,29.30
2023-01-21T23:34:00.873Z,29.70
2023-01-21T23:36:30.223Z,30.50
2023-01-21T23:38:58.283Z,30.10
2023-01-21T23:41:27.028Z,32.40
2023-01-21T23:43:59.702Z,30.60
2023-01-21T23:46:27.973Z,32.00
2023-01-21T23:48:55.962Z,31.90
2023-01-21T23:51:23.952Z,32.20
2023-01-21T23:53:51.883Z,32.90
2023-01-21T23:56:22.042Z,32.10
2023-01-21T23:58:50.963Z,32.00
